首页
METAR-TAF:

METAR-TAF

机场 :

京斯敦, 牙买加

诺曼·曼利国际机场

纬度: 17-56N, 经度: 076-47W, 海拔: 3米

当前天气观测

该预报发布于47分钟前的06:00 UTC
风速4节,风向
温度 26°C
湿度 89%
气压 1014 hPa
能见度10公里或以上
散云层高于2000英尺
多云层高于3200英尺

METAR: MKJP 200600Z 01004KT 9999 SCT020 BKN032 26/24 Q1014

时间: 01:47 (06:47 UTC)

预报

该预报发布于1小时和32分钟前的05:15 UTC
预报有效从20日的 06点(UTC)到 21日的 06点(UTC)
风速3节,风向
能见度10公里或以上
少量云层高于2000英尺
散云层高于3200英尺
成为
从 20日的 14点(UTC)到 20日的 16点(UTC)
风速10节,风向南转南东
成为
从 21日的 00点(UTC)到 21日的 02点(UTC)
风速5节,风向

TAF: MKJP 200515Z 2006/2106 36003KT 9999 FEW020 SCT032 BECMG 2014/2016 16010KT BECMG 2100/2102 36005KT

超过4000个机场的气象观测和天气预报(METAR&TAF报告)。

可查询的气象台以黄色和红色小点在地图上表示。

将鼠标移到小点上方,可查看气象台名称。

然后点击查看天气观测和预报。

如需切换地图:点击带黑十字的绿色按钮放大地图;点击带横线的绿色按钮缩小地图;或者点击绿色箭头查看邻近地区的地图。


METAR-TAF: